sensor_id;sensor_type;location;lat;lon;timestamp;pressure;altitude;pressure_sealevel;temperature;humidity
55460;BME280;41326;45.302;-122.946;2024-02-23T00:00:37;101928.29;;;18.20;54.76
55460;BME280;41326;45.302;-122.946;2024-02-23T00:03:07;101930.53;;;18.20;54.58
55460;BME280;41326;45.302;-122.946;2024-02-23T00:05:37;101932.17;;;18.23;54.52
55460;BME280;41326;45.302;-122.946;2024-02-23T00:08:08;101931.92;;;18.20;54.89
55460;BME280;41326;45.302;-122.946;2024-02-23T00:10:38;101933.38;;;18.19;55.02
55460;BME280;41326;45.302;-122.946;2024-02-23T00:13:08;101931.41;;;18.19;55.08
55460;BME280;41326;45.302;-122.946;2024-02-23T00:15:38;101932.52;;;18.23;54.95
55460;BME280;41326;45.302;-122.946;2024-02-23T00:18:08;101933.78;;;18.26;54.91
55460;BME280;41326;45.302;-122.946;2024-02-23T00:20:38;101931.25;;;18.23;55.20
55460;BME280;41326;45.302;-122.946;2024-02-23T00:23:08;101930.22;;;18.22;55.25
55460;BME280;41326;45.302;-122.946;2024-02-23T00:25:38;101930.86;;;18.23;55.30
55460;BME280;41326;45.302;-122.946;2024-02-23T00:28:09;101931.79;;;18.24;55.36
55460;BME280;41326;45.302;-122.946;2024-02-23T00:30:38;101935.07;;;18.24;55.49
55460;BME280;41326;45.302;-122.946;2024-02-23T00:33:08;101939.32;;;18.21;55.54
55460;BME280;41326;45.302;-122.946;2024-02-23T00:35:38;101938.81;;;18.23;55.51
55460;BME280;41326;45.302;-122.946;2024-02-23T00:38:08;101937.18;;;18.23;55.59
55460;BME280;41326;45.302;-122.946;2024-02-23T00:40:39;101935.63;;;18.23;55.72
55460;BME280;41326;45.302;-122.946;2024-02-23T00:43:08;101939.79;;;18.27;55.60
55460;BME280;41326;45.302;-122.946;2024-02-23T00:45:39;101940.61;;;18.26;55.54
55460;BME280;41326;45.302;-122.946;2024-02-23T00:48:09;101939.82;;;18.26;55.84
55460;BME280;41326;45.302;-122.946;2024-02-23T00:50:39;101935.65;;;18.26;55.86
55460;BME280;41326;45.302;-122.946;2024-02-23T00:53:09;101936.28;;;18.29;55.81
55460;BME280;41326;45.302;-122.946;2024-02-23T00:55:39;101934.80;;;18.29;55.91
55460;BME280;41326;45.302;-122.946;2024-02-23T00:58:09;101937.29;;;18.25;56.15
55460;BME280;41326;45.302;-122.946;2024-02-23T01:00:40;101938.49;;;18.32;56.13
55460;BME280;41326;45.302;-122.946;2024-02-23T01:03:10;101939.50;;;18.39;56.20
55460;BME280;41326;45.302;-122.946;2024-02-23T01:05:40;101931.86;;;18.55;56.01
55460;BME280;41326;45.302;-122.946;2024-02-23T01:08:10;101931.55;;;18.69;55.79
55460;BME280;41326;45.302;-122.946;2024-02-23T01:10:40;101926.86;;;18.83;55.28
55460;BME280;41326;45.302;-122.946;2024-02-23T01:13:10;101928.61;;;18.90;54.97
55460;BME280;41326;45.302;-122.946;2024-02-23T01:15:40;101928.85;;;18.92;54.72
55460;BME280;41326;45.302;-122.946;2024-02-23T01:18:10;101926.35;;;18.88;54.77
55460;BME280;41326;45.302;-122.946;2024-02-23T01:20:40;101923.59;;;18.86;54.71
55460;BME280;41326;45.302;-122.946;2024-02-23T01:23:10;101924.89;;;18.82;54.81
55460;BME280;41326;45.302;-122.946;2024-02-23T01:25:40;101924.89;;;18.80;54.85
55460;BME280;41326;45.302;-122.946;2024-02-23T01:28:11;101924.59;;;18.78;54.98
55460;BME280;41326;45.302;-122.946;2024-02-23T01:30:41;101922.68;;;18.81;55.17
55460;BME280;41326;45.302;-122.946;2024-02-23T01:33:11;101927.08;;;18.92;55.06
55460;BME280;41326;45.302;-122.946;2024-02-23T01:35:41;101928.52;;;19.00;54.80
55460;BME280;41326;45.302;-122.946;2024-02-23T01:38:11;101926.03;;;19.09;54.36
55460;BME280;41326;45.302;-122.946;2024-02-23T01:40:42;101930.72;;;19.10;54.32
55460;BME280;41326;45.302;-122.946;2024-02-23T01:43:11;101929.81;;;19.09;54.65
55460;BME280;41326;45.302;-122.946;2024-02-23T01:45:41;101929.96;;;19.06;54.97
55460;BME280;41326;45.302;-122.946;2024-02-23T01:48:12;101929.91;;;19.09;55.43
55460;BME280;41326;45.302;-122.946;2024-02-23T01:50:42;101931.37;;;19.08;55.67
55460;BME280;41326;45.302;-122.946;2024-02-23T01:53:13;101934.02;;;19.08;55.76
55460;BME280;41326;45.302;-122.946;2024-02-23T01:55:42;101936.28;;;19.03;56.14
55460;BME280;41326;45.302;-122.946;2024-02-23T01:58:12;101937.39;;;18.99;56.57
55460;BME280;41326;45.302;-122.946;2024-02-23T02:00:42;101936.87;;;18.95;57.06
55460;BME280;41326;45.302;-122.946;2024-02-23T02:03:12;101938.14;;;18.92;57.43
55460;BME280;41326;45.302;-122.946;2024-02-23T02:05:42;101939.22;;;18.92;57.47
55460;BME280;41326;45.302;-122.946;2024-02-23T02:08:13;101942.17;;;18.90;57.61
55460;BME280;41326;45.302;-122.946;2024-02-23T02:10:43;101935.60;;;18.89;57.64
55460;BME280;41326;45.302;-122.946;2024-02-23T02:13:13;101930.47;;;18.85;57.83
55460;BME280;41326;45.302;-122.946;2024-02-23T02:15:43;101926.59;;;18.85;57.95
55460;BME280;41326;45.302;-122.946;2024-02-23T02:18:13;101925.71;;;18.84;58.00
55460;BME280;41326;45.302;-122.946;2024-02-23T02:20:51;101922.87;;;18.81;58.17
55460;BME280;41326;45.302;-122.946;2024-02-23T02:23:14;101920.82;;;18.83;58.17
55460;BME280;41326;45.302;-122.946;2024-02-23T02:25:44;101919.25;;;18.83;58.22
55460;BME280;41326;45.302;-122.946;2024-02-23T02:28:14;101920.42;;;18.84;58.19
55460;BME280;41326;45.302;-122.946;2024-02-23T02:30:44;101923.86;;;18.84;58.14
55460;BME280;41326;45.302;-122.946;2024-02-23T02:33:14;101931.22;;;18.81;58.29
55460;BME280;41326;45.302;-122.946;2024-02-23T02:35:44;101935.13;;;18.81;58.37
55460;BME280;41326;45.302;-122.946;2024-02-23T02:38:14;101937.35;;;18.79;58.47
55460;BME280;41326;45.302;-122.946;2024-02-23T02:40:45;101938.76;;;18.79;58.48
55460;BME280;41326;45.302;-122.946;2024-02-23T02:43:14;101942.94;;;18.79;58.49
55460;BME280;41326;45.302;-122.946;2024-02-23T02:45:44;101945.11;;;18.79;58.54
55460;BME280;41326;45.302;-122.946;2024-02-23T02:48:14;101946.73;;;18.77;58.59
55460;BME280;41326;45.302;-122.946;2024-02-23T02:50:45;101944.48;;;18.80;58.43
55460;BME280;41326;45.302;-122.946;2024-02-23T02:53:15;101940.72;;;18.82;58.42
55460;BME280;41326;45.302;-122.946;2024-02-23T02:55:45;101938.66;;;18.80;58.50
55460;BME280;41326;45.302;-122.946;2024-02-23T02:58:15;101938.38;;;18.78;58.62
55460;BME280;41326;45.302;-122.946;2024-02-23T03:00:45;101937.28;;;18.74;58.74
55460;BME280;41326;45.302;-122.946;2024-02-23T03:03:15;101937.73;;;18.74;58.76
55460;BME280;41326;45.302;-122.946;2024-02-23T03:05:45;101932.86;;;18.79;58.82
55460;BME280;41326;45.302;-122.946;2024-02-23T03:08:15;101934.14;;;18.91;58.61
55460;BME280;41326;45.302;-122.946;2024-02-23T03:10:45;101937.49;;;19.04;58.31
55460;BME280;41326;45.302;-122.946;2024-02-23T03:13:16;101935.70;;;19.13;58.12
55460;BME280;41326;45.302;-122.946;2024-02-23T03:15:45;101939.85;;;19.15;58.02
55460;BME280;41326;45.302;-122.946;2024-02-23T03:18:16;101936.67;;;19.17;58.02
55460;BME280;41326;45.302;-122.946;2024-02-23T03:20:46;101939.60;;;19.15;58.13
55460;BME280;41326;45.302;-122.946;2024-02-23T03:23:16;101941.66;;;19.14;58.25
55460;BME280;41326;45.302;-122.946;2024-02-23T03:25:46;101940.70;;;19.14;58.29
55460;BME280;41326;45.302;-122.946;2024-02-23T03:28:16;101936.09;;;19.10;58.44
55460;BME280;41326;45.302;-122.946;2024-02-23T03:30:46;101932.23;;;19.05;58.59
55460;BME280;41326;45.302;-122.946;2024-02-23T03:33:16;101929.05;;;19.03;58.72
55460;BME280;41326;45.302;-122.946;2024-02-23T03:35:46;101928.27;;;18.98;58.95
55460;BME280;41326;45.302;-122.946;2024-02-23T03:38:16;101932.37;;;19.00;58.95
55460;BME280;41326;45.302;-122.946;2024-02-23T03:40:47;101937.16;;;18.98;59.08
55460;BME280;41326;45.302;-122.946;2024-02-23T03:43:17;101938.83;;;18.95;59.27
55460;BME280;41326;45.302;-122.946;2024-02-23T03:45:47;101943.73;;;18.99;59.17
55460;BME280;41326;45.302;-122.946;2024-02-23T03:48:17;101946.90;;;18.98;59.14
55460;BME280;41326;45.302;-122.946;2024-02-23T03:50:47;101948.47;;;18.99;59.08
55460;BME280;41326;45.302;-122.946;2024-02-23T03:53:17;101950.27;;;19.01;59.32
55460;BME280;41326;45.302;-122.946;2024-02-23T03:55:47;101952.09;;;19.02;59.96
55460;BME280;41326;45.302;-122.946;2024-02-23T03:58:17;101953.72;;;19.03;59.75
55460;BME280;41326;45.302;-122.946;2024-02-23T04:00:47;101958.42;;;19.02;59.72
55460;BME280;41326;45.302;-122.946;2024-02-23T04:03:17;101964.23;;;19.04;59.63
55460;BME280;41326;45.302;-122.946;2024-02-23T04:05:47;101968.49;;;19.05;59.53
55460;BME280;41326;45.302;-122.946;2024-02-23T04:08:17;101970.62;;;19.04;59.40
55460;BME280;41326;45.302;-122.946;2024-02-23T04:10:48;101966.78;;;19.03;59.34
55460;BME280;41326;45.302;-122.946;2024-02-23T04:13:18;101965.47;;;19.04;59.41
55460;BME280;41326;45.302;-122.946;2024-02-23T04:15:48;101963.54;;;19.04;59.45
55460;BME280;41326;45.302;-122.946;2024-02-23T04:18:18;101960.18;;;19.00;59.59
55460;BME280;41326;45.302;-122.946;2024-02-23T04:20:48;101959.25;;;18.98;59.62
55460;BME280;41326;45.302;-122.946;2024-02-23T04:23:18;101955.49;;;18.98;59.66
55460;BME280;41326;45.302;-122.946;2024-02-23T04:25:48;101953.78;;;18.98;59.65
55460;BME280;41326;45.302;-122.946;2024-02-23T04:28:18;101953.77;;;18.99;59.45
55460;BME280;41326;45.302;-122.946;2024-02-23T04:30:48;101952.92;;;18.99;59.29
55460;BME280;41326;45.302;-122.946;2024-02-23T04:33:18;101957.09;;;18.98;59.38
55460;BME280;41326;45.302;-122.946;2024-02-23T04:35:48;101961.65;;;18.97;59.41
55460;BME280;41326;45.302;-122.946;2024-02-23T04:38:19;101962.94;;;18.96;59.41
55460;BME280;41326;45.302;-122.946;2024-02-23T04:40:49;101961.85;;;18.92;59.49
55460;BME280;41326;45.302;-122.946;2024-02-23T04:43:19;101961.81;;;18.93;59.42
55460;BME280;41326;45.302;-122.946;2024-02-23T04:45:49;101958.80;;;18.87;59.68
55460;BME280;41326;45.302;-122.946;2024-02-23T04:48:19;101953.06;;;18.88;59.49
55460;BME280;41326;45.302;-122.946;2024-02-23T04:50:49;101952.43;;;18.89;59.35
55460;BME280;41326;45.302;-122.946;2024-02-23T04:53:19;101956.00;;;18.88;59.39
55460;BME280;41326;45.302;-122.946;2024-02-23T04:55:49;101960.92;;;18.84;59.54
55460;BME280;41326;45.302;-122.946;2024-02-23T04:58:19;101968.13;;;18.84;59.57
55460;BME280;41326;45.302;-122.946;2024-02-23T05:00:49;101965.74;;;18.86;59.45
55460;BME280;41326;45.302;-122.946;2024-02-23T05:03:19;101962.29;;;18.91;59.31
55460;BME280;41326;45.302;-122.946;2024-02-23T05:05:50;101962.08;;;18.92;59.31
55460;BME280;41326;45.302;-122.946;2024-02-23T05:08:20;101964.11;;;18.92;59.22
55460;BME280;41326;45.302;-122.946;2024-02-23T05:10:50;101965.40;;;18.90;59.25
55460;BME280;41326;45.302;-122.946;2024-02-23T05:13:20;101965.24;;;18.82;59.69
55460;BME280;41326;45.302;-122.946;2024-02-23T05:15:50;101963.94;;;18.81;59.72
55460;BME280;41326;45.302;-122.946;2024-02-23T05:18:20;101960.70;;;18.80;59.81
55460;BME280;41326;45.302;-122.946;2024-02-23T05:20:50;101961.72;;;18.79;59.80
55460;BME280;41326;45.302;-122.946;2024-02-23T05:23:20;101970.01;;;18.75;59.88
55460;BME280;41326;45.302;-122.946;2024-02-23T05:25:50;101972.91;;;18.75;59.87
55460;BME280;41326;45.302;-122.946;2024-02-23T05:28:20;101980.91;;;18.75;59.75
55460;BME280;41326;45.302;-122.946;2024-02-23T05:30:51;101988.49;;;18.73;59.73
55460;BME280;41326;45.302;-122.946;2024-02-23T05:33:21;101992.73;;;18.73;59.70
55460;BME280;41326;45.302;-122.946;2024-02-23T05:35:51;101997.27;;;18.74;59.66
55460;BME280;41326;45.302;-122.946;2024-02-23T05:38:21;102003.05;;;18.70;59.74
55460;BME280;41326;45.302;-122.946;2024-02-23T05:40:51;102008.74;;;18.68;59.79
55460;BME280;41326;45.302;-122.946;2024-02-23T05:43:21;102005.41;;;18.67;59.80
55460;BME280;41326;45.302;-122.946;2024-02-23T05:45:51;101997.49;;;18.67;59.75
55460;BME280;41326;45.302;-122.946;2024-02-23T05:48:21;101996.02;;;18.65;59.64
55460;BME280;41326;45.302;-122.946;2024-02-23T05:50:51;101995.97;;;18.66;59.50
55460;BME280;41326;45.302;-122.946;2024-02-23T05:53:21;101989.44;;;18.67;59.49
55460;BME280;41326;45.302;-122.946;2024-02-23T05:55:51;101981.60;;;18.68;59.43
55460;BME280;41326;45.302;-122.946;2024-02-23T05:58:21;101978.98;;;18.66;59.49
55460;BME280;41326;45.302;-122.946;2024-02-23T06:00:51;101972.14;;;18.62;59.58
55460;BME280;41326;45.302;-122.946;2024-02-23T06:03:22;101967.44;;;18.59;59.68
55460;BME280;41326;45.302;-122.946;2024-02-23T06:05:52;101969.72;;;18.57;59.71
55460;BME280;41326;45.302;-122.946;2024-02-23T06:08:22;101967.71;;;18.57;59.62
55460;BME280;41326;45.302;-122.946;2024-02-23T06:10:52;101969.59;;;18.54;59.61
55460;BME280;41326;45.302;-122.946;2024-02-23T06:13:22;101971.74;;;18.52;59.71
55460;BME280;41326;45.302;-122.946;2024-02-23T06:15:52;101972.33;;;18.50;59.79
55460;BME280;41326;45.302;-122.946;2024-02-23T06:18:23;101972.69;;;18.50;59.79
55460;BME280;41326;45.302;-122.946;2024-02-23T06:20:53;101971.24;;;18.47;59.87
55460;BME280;41326;45.302;-122.946;2024-02-23T06:23:23;101967.79;;;18.42;60.02
55460;BME280;41326;45.302;-122.946;2024-02-23T06:25:53;101964.68;;;18.41;60.05
55460;BME280;41326;45.302;-122.946;2024-02-23T06:28:23;101966.13;;;18.41;59.92
55460;BME280;41326;45.302;-122.946;2024-02-23T06:30:53;101968.86;;;18.41;59.86
55460;BME280;41326;45.302;-122.946;2024-02-23T06:33:23;101973.18;;;18.34;60.14
55460;BME280;41326;45.302;-122.946;2024-02-23T06:35:54;101973.94;;;18.31;60.24
55460;BME280;41326;45.302;-122.946;2024-02-23T06:38:23;101973.34;;;18.30;60.30
55460;BME280;41326;45.302;-122.946;2024-02-23T06:40:54;101973.89;;;18.31;60.22
55460;BME280;41326;45.302;-122.946;2024-02-23T06:43:24;101974.88;;;18.31;60.23
55460;BME280;41326;45.302;-122.946;2024-02-23T06:45:54;101977.19;;;18.28;60.32
55460;BME280;41326;45.302;-122.946;2024-02-23T06:48:24;101980.21;;;18.30;60.14
55460;BME280;41326;45.302;-122.946;2024-02-23T06:50:54;101982.33;;;18.29;60.07
55460;BME280;41326;45.302;-122.946;2024-02-23T06:53:24;101988.44;;;18.31;60.02
55460;BME280;41326;45.302;-122.946;2024-02-23T06:55:54;101991.27;;;18.30;60.06
55460;BME280;41326;45.302;-122.946;2024-02-23T06:58:24;101996.24;;;18.30;60.08
55460;BME280;41326;45.302;-122.946;2024-02-23T07:00:54;101994.39;;;18.25;60.22
55460;BME280;41326;45.302;-122.946;2024-02-23T07:03:24;102001.04;;;18.24;60.24
55460;BME280;41326;45.302;-122.946;2024-02-23T07:05:54;102009.55;;;18.18;60.48
55460;BME280;41326;45.302;-122.946;2024-02-23T07:08:25;102017.02;;;18.16;60.49
55460;BME280;41326;45.302;-122.946;2024-02-23T07:10:55;102015.48;;;18.14;60.48
55460;BME280;41326;45.302;-122.946;2024-02-23T07:13:25;102012.00;;;18.10;60.63
55460;BME280;41326;45.302;-122.946;2024-02-23T07:15:55;102012.24;;;18.05;60.80
55460;BME280;41326;45.302;-122.946;2024-02-23T07:18:25;102012.02;;;18.04;60.92
55460;BME280;41326;45.302;-122.946;2024-02-23T07:20:56;102008.40;;;18.04;60.96
55460;BME280;41326;45.302;-122.946;2024-02-23T07:23:26;102008.68;;;18.01;61.05
55460;BME280;41326;45.302;-122.946;2024-02-23T07:25:56;102009.08;;;18.01;60.98
55460;BME280;41326;45.302;-122.946;2024-02-23T07:28:26;102005.93;;;18.02;60.90
55460;BME280;41326;45.302;-122.946;2024-02-23T07:30:56;102008.23;;;18.00;60.85
55460;BME280;41326;45.302;-122.946;2024-02-23T07:33:26;102012.58;;;17.97;60.94
55460;BME280;41326;45.302;-122.946;2024-02-23T07:35:56;102015.35;;;17.96;61.02
55460;BME280;41326;45.302;-122.946;2024-02-23T07:38:26;102013.14;;;17.92;61.08
55460;BME280;41326;45.302;-122.946;2024-02-23T07:40:57;102018.19;;;17.91;61.11
55460;BME280;41326;45.302;-122.946;2024-02-23T07:43:27;102019.50;;;17.89;61.18
55460;BME280;41326;45.302;-122.946;2024-02-23T07:45:57;102020.97;;;17.89;61.12
55460;BME280;41326;45.302;-122.946;2024-02-23T07:48:27;102023.03;;;17.86;61.10
55460;BME280;41326;45.302;-122.946;2024-02-23T07:50:57;102025.80;;;17.86;61.03
55460;BME280;41326;45.302;-122.946;2024-02-23T07:53:27;102025.56;;;17.86;60.99
55460;BME280;41326;45.302;-122.946;2024-02-23T07:55:58;102024.88;;;17.84;61.07
55460;BME280;41326;45.302;-122.946;2024-02-23T07:58:27;102021.33;;;17.80;61.16
55460;BME280;41326;45.302;-122.946;2024-02-23T08:00:57;102021.55;;;17.77;61.26
55460;BME280;41326;45.302;-122.946;2024-02-23T08:03:27;102017.79;;;17.77;61.24
55460;BME280;41326;45.302;-122.946;2024-02-23T08:05:58;102018.71;;;17.78;61.14
55460;BME280;41326;45.302;-122.946;2024-02-23T08:08:28;102015.22;;;17.78;61.07
55460;BME280;41326;45.302;-122.946;2024-02-23T08:10:58;102015.63;;;17.78;60.99
55460;BME280;41326;45.302;-122.946;2024-02-23T08:13:28;102013.38;;;17.75;61.07
55460;BME280;41326;45.302;-122.946;2024-02-23T08:15:58;102013.47;;;17.73;61.10
55460;BME280;41326;45.302;-122.946;2024-02-23T08:18:28;102013.48;;;17.71;61.09
55460;BME280;41326;45.302;-122.946;2024-02-23T08:20:58;102019.27;;;17.67;61.23
55460;BME280;41326;45.302;-122.946;2024-02-23T08:23:28;102023.43;;;17.65;61.31
55460;BME280;41326;45.302;-122.946;2024-02-23T08:25:58;102023.60;;;17.64;61.27
55460;BME280;41326;45.302;-122.946;2024-02-23T08:28:28;102026.84;;;17.63;61.19
55460;BME280;41326;45.302;-122.946;2024-02-23T08:30:58;102022.99;;;17.60;61.19
55460;BME280;41326;45.302;-122.946;2024-02-23T08:33:29;102031.08;;;17.57;61.31
55460;BME280;41326;45.302;-122.946;2024-02-23T08:35:59;102031.82;;;17.57;61.25
55460;BME280;41326;45.302;-122.946;2024-02-23T08:38:29;102033.12;;;17.54;61.33
55460;BME280;41326;45.302;-122.946;2024-02-23T08:41:00;102034.42;;;17.50;61.44
55460;BME280;41326;45.302;-122.946;2024-02-23T08:43:29;102031.09;;;17.49;61.44
55460;BME280;41326;45.302;-122.946;2024-02-23T08:45:59;102025.82;;;17.51;61.39
55460;BME280;41326;45.302;-122.946;2024-02-23T08:48:29;102023.42;;;17.48;61.35
55460;BME280;41326;45.302;-122.946;2024-02-23T08:50:59;102025.54;;;17.48;61.27
55460;BME280;41326;45.302;-122.946;2024-02-23T08:53:29;102030.45;;;17.53;61.09
55460;BME280;41326;45.302;-122.946;2024-02-23T08:55:59;102028.61;;;17.52;61.08
55460;BME280;41326;45.302;-122.946;2024-02-23T08:58:30;102026.92;;;17.48;61.15
55460;BME280;41326;45.302;-122.946;2024-02-23T09:01:00;102029.05;;;17.46;61.25
55460;BME280;41326;45.302;-122.946;2024-02-23T09:03:30;102023.94;;;17.42;61.35
55460;BME280;41326;45.302;-122.946;2024-02-23T09:06:00;102023.64;;;17.44;61.31
55460;BME280;41326;45.302;-122.946;2024-02-23T09:08:30;102023.05;;;17.43;61.25
55460;BME280;41326;45.302;-122.946;2024-02-23T09:11:00;102019.41;;;17.41;61.22
55460;BME280;41326;45.302;-122.946;2024-02-23T09:13:30;102016.97;;;17.39;61.22
55460;BME280;41326;45.302;-122.946;2024-02-23T09:16:00;102019.96;;;17.37;61.27
55460;BME280;41326;45.302;-122.946;2024-02-23T09:18:30;102025.88;;;17.35;61.28
55460;BME280;41326;45.302;-122.946;2024-02-23T09:21:00;102022.94;;;17.33;61.28
55460;BME280;41326;45.302;-122.946;2024-02-23T09:23:30;102018.94;;;17.29;61.42
55460;BME280;41326;45.302;-122.946;2024-02-23T09:26:01;102014.42;;;17.27;61.44
55460;BME280;41326;45.302;-122.946;2024-02-23T09:28:31;102013.80;;;17.30;61.35
55460;BME280;41326;45.302;-122.946;2024-02-23T09:31:01;102016.25;;;17.30;61.28
55460;BME280;41326;45.302;-122.946;2024-02-23T09:33:31;102014.28;;;17.27;61.34
55460;BME280;41326;45.302;-122.946;2024-02-23T09:36:01;102017.52;;;17.25;61.36
55460;BME280;41326;45.302;-122.946;2024-02-23T09:38:31;102017.23;;;17.21;61.44
55460;BME280;41326;45.302;-122.946;2024-02-23T09:41:02;102013.85;;;17.18;61.50
55460;BME280;41326;45.302;-122.946;2024-02-23T09:43:32;102011.51;;;17.19;61.43
55460;BME280;41326;45.302;-122.946;2024-02-23T09:46:01;102012.00;;;17.18;61.40
55460;BME280;41326;45.302;-122.946;2024-02-23T09:48:32;102013.44;;;17.18;61.31
55460;BME280;41326;45.302;-122.946;2024-02-23T09:51:02;102012.18;;;17.16;61.26
55460;BME280;41326;45.302;-122.946;2024-02-23T09:53:32;102007.67;;;17.19;61.11
55460;BME280;41326;45.302;-122.946;2024-02-23T09:56:03;102014.86;;;17.21;61.02
55460;BME280;41326;45.302;-122.946;2024-02-23T09:58:32;102017.71;;;17.19;61.06
55460;BME280;41326;45.302;-122.946;2024-02-23T10:01:03;102016.96;;;17.16;61.11
55460;BME280;41326;45.302;-122.946;2024-02-23T10:03:32;102023.35;;;17.12;61.22
55460;BME280;41326;45.302;-122.946;2024-02-23T10:06:03;102025.43;;;17.12;61.16
55460;BME280;41326;45.302;-122.946;2024-02-23T10:08:32;102026.34;;;17.12;61.09
55460;BME280;41326;45.302;-122.946;2024-02-23T10:11:03;102023.98;;;17.10;61.07
55460;BME280;41326;45.302;-122.946;2024-02-23T10:13:36;102025.67;;;17.06;61.17
55460;BME280;41326;45.302;-122.946;2024-02-23T10:16:03;102022.51;;;17.05;61.17
55460;BME280;41326;45.302;-122.946;2024-02-23T10:18:33;102019.86;;;17.05;61.17
55460;BME280;41326;45.302;-122.946;2024-02-23T10:21:03;102015.31;;;17.02;61.24
55460;BME280;41326;45.302;-122.946;2024-02-23T10:23:33;102015.18;;;16.97;61.37
55460;BME280;41326;45.302;-122.946;2024-02-23T10:26:05;102018.81;;;16.97;61.33
55460;BME280;41326;45.302;-122.946;2024-02-23T10:28:34;102013.67;;;16.97;61.26
55460;BME280;41326;45.302;-122.946;2024-02-23T10:31:04;102013.96;;;16.99;61.12
55460;BME280;41326;45.302;-122.946;2024-02-23T10:33:35;102014.38;;;16.99;61.10
55460;BME280;41326;45.302;-122.946;2024-02-23T10:36:06;102012.36;;;16.94;61.17
55460;BME280;41326;45.302;-122.946;2024-02-23T10:38:37;102020.13;;;16.91;61.26
55460;BME280;41326;45.302;-122.946;2024-02-23T10:41:05;102022.03;;;16.91;61.25
55460;BME280;41326;45.302;-122.946;2024-02-23T10:43:39;102017.97;;;16.91;61.22
55460;BME280;41326;45.302;-122.946;2024-02-23T10:46:04;102025.73;;;16.91;61.22
55460;BME280;41326;45.302;-122.946;2024-02-23T10:48:34;102026.01;;;16.93;61.12
55460;BME280;41326;45.302;-122.946;2024-02-23T10:51:07;102028.60;;;16.92;61.08
55460;BME280;41326;45.302;-122.946;2024-02-23T10:53:35;102028.23;;;16.93;61.06
55460;BME280;41326;45.302;-122.946;2024-02-23T10:56:05;102029.12;;;16.93;61.01
55460;BME280;41326;45.302;-122.946;2024-02-23T10:58:34;102028.38;;;16.88;61.11
55460;BME280;41326;45.302;-122.946;2024-02-23T11:01:07;102025.80;;;16.86;61.18
55460;BME280;41326;45.302;-122.946;2024-02-23T11:03:37;102021.32;;;16.84;61.22
55460;BME280;41326;45.302;-122.946;2024-02-23T11:06:07;102023.99;;;16.83;61.20
55460;BME280;41326;45.302;-122.946;2024-02-23T11:08:35;102024.92;;;16.83;61.14
55460;BME280;41326;45.302;-122.946;2024-02-23T11:11:09;102025.09;;;16.81;61.14
55460;BME280;41326;45.302;-122.946;2024-02-23T11:13:36;102027.97;;;16.81;61.13
55460;BME280;41326;45.302;-122.946;2024-02-23T11:16:06;102031.17;;;16.77;61.20
55460;BME280;41326;45.302;-122.946;2024-02-23T11:18:36;102035.31;;;16.79;61.14
55460;BME280;41326;45.302;-122.946;2024-02-23T11:21:09;102033.70;;;16.73;61.27
55460;BME280;41326;45.302;-122.946;2024-02-23T11:23:40;102034.08;;;16.73;61.29
55460;BME280;41326;45.302;-122.946;2024-02-23T11:26:06;102036.61;;;16.73;61.23
55460;BME280;41326;45.302;-122.946;2024-02-23T11:28:43;102034.56;;;16.74;61.14
55460;BME280;41326;45.302;-122.946;2024-02-23T11:31:12;102035.46;;;16.71;61.15
55460;BME280;41326;45.302;-122.946;2024-02-23T11:33:36;102034.46;;;16.72;61.09
55460;BME280;41326;45.302;-122.946;2024-02-23T11:36:06;102030.43;;;16.69;61.15
55460;BME280;41326;45.302;-122.946;2024-02-23T11:38:37;102030.82;;;16.67;61.17
55460;BME280;41326;45.302;-122.946;2024-02-23T11:41:06;102032.52;;;16.64;61.23
55460;BME280;41326;45.302;-122.946;2024-02-23T11:43:36;102032.84;;;16.64;61.19
55460;BME280;41326;45.302;-122.946;2024-02-23T11:46:07;102033.68;;;16.63;61.20
55460;BME280;41326;45.302;-122.946;2024-02-23T11:48:36;102027.42;;;16.63;61.11
55460;BME280;41326;45.302;-122.946;2024-02-23T11:51:07;102023.00;;;16.65;61.01
55460;BME280;41326;45.302;-122.946;2024-02-23T11:53:37;102017.80;;;16.65;60.93
55460;BME280;41326;45.302;-122.946;2024-02-23T11:56:07;102019.28;;;16.65;60.90
55460;BME280;41326;45.302;-122.946;2024-02-23T11:58:36;102023.46;;;16.62;60.98
55460;BME280;41326;45.302;-122.946;2024-02-23T12:01:07;102024.28;;;16.58;61.08
55460;BME280;41326;45.302;-122.946;2024-02-23T12:03:37;102021.92;;;16.60;61.00
55460;BME280;41326;45.302;-122.946;2024-02-23T12:06:07;102019.76;;;16.58;61.04
55460;BME280;41326;45.302;-122.946;2024-02-23T12:08:37;102019.13;;;16.57;61.03
55460;BME280;41326;45.302;-122.946;2024-02-23T12:11:08;102013.27;;;16.56;61.02
55460;BME280;41326;45.302;-122.946;2024-02-23T12:13:38;102013.67;;;16.53;61.06
55460;BME280;41326;45.302;-122.946;2024-02-23T12:16:08;102013.11;;;16.53;61.05
55460;BME280;41326;45.302;-122.946;2024-02-23T12:18:37;102013.25;;;16.51;61.07
55460;BME280;41326;45.302;-122.946;2024-02-23T12:21:08;102016.40;;;16.52;60.98
55460;BME280;41326;45.302;-122.946;2024-02-23T12:23:40;102015.38;;;16.54;60.89
55460;BME280;41326;45.302;-122.946;2024-02-23T12:26:08;102017.02;;;16.52;60.90
55460;BME280;41326;45.302;-122.946;2024-02-23T12:28:38;102016.33;;;16.54;60.82
55460;BME280;41326;45.302;-122.946;2024-02-23T12:31:08;102021.73;;;16.49;60.81
55460;BME280;41326;45.302;-122.946;2024-02-23T12:33:39;102021.78;;;16.47;60.88